Time;durP1;ratioP1;P1;durP2;ratioP2;P2;SDS_P1;SDS_P2;PMS_P1;PMS_P2;Temp;Humidity;BMP_temperature;BMP_pressure;BME280_temperature;BME280_humidity;BME280_pressure;Samples;Min_cycle;Max_cycle;Signal;HPM_P1;HPM_P2
2022/04/23 00:00:06;;;;;;;26.00;11.50;;;;;;;4.39;72.26;99748.46;106499;1272;25363;-76
2022/04/23 00:02:59;;;;;;;26.90;13.00;;;;;;;4.36;72.24;99744.33;106317;1273;22617;-77
2022/04/23 00:05:30;;;;;;;24.90;11.40;;;;;;;4.32;72.31;99746.55;106388;1272;22484;-77
2022/04/23 00:08:05;;;;;;;27.80;12.10;;;;;;;4.26;72.26;99740.34;106299;1272;22534;-76
2022/04/23 00:10:38;;;;;;;25.30;11.80;;;;;;;4.21;72.14;99739.34;106308;1272;24338;-77
2022/04/23 00:13:10;;;;;;;25.00;11.40;;;;;;;4.18;72.61;99738.27;106272;1272;24231;-77
2022/04/23 00:15:43;;;;;;;27.80;12.60;;;;;;;4.17;72.78;99739.88;106333;1272;22623;-77
2022/04/23 00:18:18;;;;;;;26.40;13.00;;;;;;;4.13;72.97;99738.21;106221;1274;23266;-76
2022/04/23 00:20:55;;;;;;;28.70;12.80;;;;;;;4.10;72.91;99735.84;106308;1272;22477;-77
2022/04/23 00:23:29;;;;;;;28.70;12.70;;;;;;;4.08;72.67;99736.86;106321;1272;22572;-77
2022/04/23 00:26:00;;;;;;;27.50;12.80;;;;;;;4.03;72.53;99733.63;106359;1272;24010;-77
2022/04/23 00:28:32;;;;;;;25.60;11.80;;;;;;;3.96;72.43;99734.42;106344;1272;25432;-77
2022/04/23 00:31:04;;;;;;;32.60;15.10;;;;;;;3.92;72.37;99734.25;106297;1274;22537;-78
2022/04/23 00:33:37;;;;;;;27.60;13.50;;;;;;;3.89;72.92;99738.32;106357;1272;22640;-77
2022/04/23 00:36:10;;;;;;;30.00;14.50;;;;;;;3.83;73.18;99736.84;106381;1272;25367;-76
2022/04/23 00:38:49;;;;;;;25.40;13.90;;;;;;;3.78;72.60;99737.10;106288;1272;23924;-77
2022/04/23 00:44:15;;;;;;;24.90;12.00;;;;;;;3.69;72.62;99732.20;106285;1272;25336;-77
2022/04/23 00:46:47;;;;;;;30.10;14.00;;;;;;;3.63;72.51;99730.16;106254;1273;22617;-76
2022/04/23 00:49:23;;;;;;;29.30;13.50;;;;;;;3.58;72.49;99731.77;106288;1272;24452;-76
2022/04/23 00:51:55;;;;;;;29.80;13.40;;;;;;;3.54;72.49;99732.77;106372;1271;23869;-77
2022/04/23 00:54:28;;;;;;;28.20;14.30;;;;;;;3.47;72.59;99731.42;106293;1272;25366;-77
2022/04/23 00:57:00;;;;;;;28.10;12.80;;;;;;;3.43;72.58;99735.02;106400;1272;22580;-76
2022/04/23 00:59:32;;;;;;;26.90;12.90;;;;;;;3.36;72.69;99733.91;106405;1272;25934;-78
2022/04/23 01:02:03;;;;;;;27.90;13.30;;;;;;;3.30;72.63;99731.48;106353;1272;25378;-76
2022/04/23 01:04:34;;;;;;;30.20;13.00;;;;;;;3.25;72.41;99730.08;106417;1272;22704;-76
2022/04/23 01:07:06;;;;;;;28.80;13.00;;;;;;;3.23;72.41;99736.36;106337;1272;24297;-77
2022/04/23 01:09:37;;;;;;;30.20;13.30;;;;;;;3.17;72.42;99735.11;106364;1271;23071;-77
2022/04/23 01:12:11;;;;;;;29.30;12.90;;;;;;;3.12;72.53;99731.91;106356;1272;22546;-76
2022/04/23 01:14:58;;;;;;;31.00;13.10;;;;;;;3.05;72.42;99732.34;106500;1272;23214;-77
2022/04/23 01:17:30;;;;;;;28.20;13.70;;;;;;;2.98;72.30;99731.77;106402;1271;25356;-77
2022/04/23 01:20:06;;;;;;;26.70;12.30;;;;;;;2.92;72.28;99729.90;106371;1271;25397;-76
2022/04/23 01:22:38;;;;;;;28.10;13.20;;;;;;;2.87;72.30;99729.36;106360;1272;22678;-76
2022/04/23 01:25:15;;;;;;;27.30;12.50;;;;;;;2.81;72.33;99730.23;106463;1272;23565;-77
2022/04/23 01:27:48;;;;;;;28.70;11.90;;;;;;;2.74;72.32;99730.35;106322;1272;23833;-77
2022/04/23 01:30:19;;;;;;;27.10;12.40;;;;;;;2.68;72.23;99729.84;106477;1272;25245;-77
2022/04/23 01:32:50;;;;;;;26.80;12.60;;;;;;;2.63;72.30;99733.23;106385;1272;22556;-77
2022/04/23 01:35:23;;;;;;;27.90;12.40;;;;;;;2.59;72.23;99728.85;106413;1272;22563;-77
2022/04/23 01:37:56;;;;;;;27.60;11.80;;;;;;;2.55;72.23;99731.00;106328;1272;25250;-77
2022/04/23 01:40:29;;;;;;;26.50;12.90;;;;;;;2.52;72.34;99730.23;106387;1272;25528;-76
2022/04/23 01:43:00;;;;;;;27.00;12.80;;;;;;;2.47;72.29;99727.27;106408;1272;22567;-77
2022/04/23 01:45:34;;;;;;;26.80;12.20;;;;;;;2.43;72.39;99727.79;106376;1272;22585;-76
2022/04/23 01:48:06;;;;;;;26.30;12.00;;;;;;;2.39;72.42;99724.12;106487;1272;22634;-76
2022/04/23 01:50:38;;;;;;;26.00;12.20;;;;;;;2.36;72.48;99727.98;106354;1272;22615;-76
2022/04/23 01:53:09;;;;;;;27.80;13.30;;;;;;;2.32;72.55;99725.11;106333;1272;23892;-77
2022/04/23 01:55:45;;;;;;;27.20;12.10;;;;;;;2.27;72.48;99720.52;106390;1272;25409;-77
2022/04/23 01:58:16;;;;;;;26.70;12.40;;;;;;;2.23;72.44;99717.41;106388;1271;22560;-78
2022/04/23 02:00:47;;;;;;;27.90;12.30;;;;;;;2.19;72.40;99717.43;106347;1272;22741;-78
2022/04/23 02:03:19;;;;;;;26.20;12.50;;;;;;;2.14;72.43;99713.56;106412;1272;24339;-76
2022/04/23 02:05:51;;;;;;;32.50;14.20;;;;;;;2.09;72.39;99709.63;106386;1272;24274;-76
2022/04/23 02:08:22;;;;;;;29.20;13.80;;;;;;;2.03;72.40;99706.55;106513;1273;25282;-77
2022/04/23 02:10:56;;;;;;;27.30;13.50;;;;;;;2.00;72.49;99703.96;106634;1272;22604;-78
2022/04/23 02:13:28;;;;;;;26.20;12.70;;;;;;;1.96;72.59;99701.86;106730;1272;22574;-77
2022/04/23 02:15:59;;;;;;;27.10;12.50;;;;;;;1.92;72.59;99701.03;107019;1272;25353;-77
2022/04/23 02:18:32;;;;;;;28.90;13.30;;;;;;;1.87;72.75;99705.56;107188;1272;22587;-77
2022/04/23 02:21:05;;;;;;;28.00;12.30;;;;;;;1.83;72.82;99705.59;107057;1272;22620;-78
2022/04/23 02:23:36;;;;;;;24.60;11.40;;;;;;;1.80;72.80;99705.42;106585;1273;23109;-76
2022/04/23 02:26:14;;;;;;;29.20;12.60;;;;;;;1.77;72.90;99704.10;106618;1272;24260;-76
2022/04/23 02:28:47;;;;;;;27.40;12.40;;;;;;;1.74;72.91;99706.30;106466;1272;22651;-75
2022/04/23 02:31:20;;;;;;;28.30;12.30;;;;;;;1.70;72.92;99702.94;106484;1272;24748;-76
2022/04/23 02:33:51;;;;;;;25.10;11.80;;;;;;;1.68;72.92;99708.66;106351;1272;23341;-77
2022/04/23 02:36:27;;;;;;;25.40;11.00;;;;;;;1.65;72.96;99708.80;106357;1271;22866;-77
2022/04/23 02:38:58;;;;;;;25.30;11.70;;;;;;;1.61;73.03;99714.30;106368;1272;23193;-77
2022/04/23 02:41:32;;;;;;;25.60;12.10;;;;;;;1.59;72.92;99713.11;106346;1272;24232;-76
2022/04/23 02:44:04;;;;;;;26.10;12.70;;;;;;;1.56;73.00;99712.02;106327;1272;24295;-77
2022/04/23 02:46:36;;;;;;;25.70;12.10;;;;;;;1.52;72.95;99711.41;106524;1272;22632;-77
2022/04/23 02:49:10;;;;;;;25.00;10.80;;;;;;;1.47;72.97;99713.65;106469;1272;22655;-77
2022/04/23 02:51:45;;;;;;;28.80;12.90;;;;;;;1.41;73.17;99712.61;106576;1272;26555;-78
2022/04/23 02:54:17;;;;;;;27.40;12.40;;;;;;;1.36;73.18;99715.65;106945;1272;22524;-75
2022/04/23 02:56:50;;;;;;;30.90;13.70;;;;;;;1.32;73.28;99716.92;106479;1272;26263;-76
2022/04/23 02:59:22;;;;;;;26.00;11.70;;;;;;;1.29;73.42;99714.80;106777;1272;22832;-77
2022/04/23 03:01:57;;;;;;;25.90;12.50;;;;;;;1.24;73.40;99712.64;106335;1272;24284;-77
2022/04/23 03:04:28;;;;;;;26.40;11.60;;;;;;;1.22;73.41;99716.85;106362;1272;24110;-78
2022/04/23 03:07:01;;;;;;;29.60;11.80;;;;;;;1.20;73.54;99715.66;106350;1272;22599;-77
2022/04/23 03:09:34;;;;;;;26.60;12.40;;;;;;;1.16;73.51;99711.80;106395;1272;24277;-77
2022/04/23 03:12:09;;;;;;;27.20;12.20;;;;;;;1.14;73.55;99717.10;106302;1272;25375;-77
2022/04/23 03:14:45;;;;;;;25.60;11.20;;;;;;;1.13;73.66;99718.48;106558;1272;25455;-77
2022/04/23 03:17:19;;;;;;;27.50;12.40;;;;;;;1.11;73.67;99714.77;106330;1272;22552;-76
2022/04/23 03:19:51;;;;;;;22.20;10.10;;;;;;;1.10;73.79;99718.95;106370;1272;22486;-77
2022/04/23 03:22:22;;;;;;;25.90;11.50;;;;;;;1.09;73.88;99719.13;106367;1272;22538;-77
2022/04/23 03:24:54;;;;;;;31.10;13.20;;;;;;;1.06;73.96;99721.78;106388;1272;24034;-78
2022/04/23 03:27:25;;;;;;;28.90;12.50;;;;;;;1.04;74.02;99721.81;106334;1272;22567;-77
2022/04/23 03:30:00;;;;;;;26.30;11.30;;;;;;;1.02;74.02;99726.66;106304;1272;24677;-78
2022/04/23 03:32:31;;;;;;;29.30;11.40;;;;;;;0.99;74.15;99729.71;106367;1272;25525;-77
2022/04/23 03:35:05;;;;;;;27.30;12.70;;;;;;;0.97;74.17;99735.98;106430;1272;24231;-75
2022/04/23 03:37:39;;;;;;;24.20;11.30;;;;;;;0.94;74.21;99739.72;106430;1272;24281;-75
2022/04/23 03:40:13;;;;;;;27.80;11.50;;;;;;;0.91;74.29;99741.90;106402;1272;25141;-77
2022/04/23 03:42:48;;;;;;;26.10;12.10;;;;;;;0.91;74.39;99744.83;106553;1272;25247;-77
2022/04/23 03:45:22;;;;;;;27.90;11.90;;;;;;;0.89;74.31;99743.29;106404;1272;22540;-78
2022/04/23 03:47:54;;;;;;;25.90;12.50;;;;;;;0.87;74.44;99741.52;106325;1272;24235;-78
2022/04/23 03:50:32;;;;;;;24.50;10.70;;;;;;;0.85;74.50;99739.13;106318;1272;25513;-77
2022/04/23 03:53:04;;;;;;;30.90;12.80;;;;;;;0.83;74.38;99742.94;106306;1272;22563;-77
2022/04/23 03:55:35;;;;;;;25.20;11.40;;;;;;;0.81;74.45;99746.20;106283;1272;24017;-77
2022/04/23 03:58:07;;;;;;;27.50;11.60;;;;;;;0.78;74.47;99746.80;106315;1272;22544;-78
2022/04/23 04:00:38;;;;;;;23.30;10.80;;;;;;;0.76;74.49;99745.29;106325;1272;25561;-78
2022/04/23 04:03:10;;;;;;;26.40;11.60;;;;;;;0.73;74.56;99740.01;106330;1272;22589;-77
2022/04/23 04:05:43;;;;;;;30.80;12.70;;;;;;;0.73;74.68;99738.68;106378;1272;23440;-78
2022/04/23 04:08:16;;;;;;;24.30;11.10;;;;;;;0.72;74.62;99737.98;106367;1272;24248;-77
2022/04/23 04:10:50;;;;;;;28.00;11.90;;;;;;;0.71;74.77;99741.86;106262;1272;25487;-78
2022/04/23 04:13:23;;;;;;;28.90;13.00;;;;;;;0.71;74.76;99743.81;106357;1272;22526;-78
2022/04/23 04:15:56;;;;;;;26.60;11.70;;;;;;;0.72;74.90;99743.09;106321;1272;23422;-78
2022/04/23 04:18:27;;;;;;;24.60;11.30;;;;;;;0.73;75.04;99744.48;106317;1271;22573;-77
2022/04/23 04:20:59;;;;;;;29.90;13.20;;;;;;;0.75;75.07;99746.73;106375;1272;24268;-77
2022/04/23 04:23:31;;;;;;;27.20;12.30;;;;;;;0.76;75.04;99747.80;106414;1272;22608;-77
2022/04/23 04:26:04;;;;;;;25.50;10.90;;;;;;;0.78;75.20;99744.61;106422;1271;24086;-76
2022/04/23 04:28:36;;;;;;;28.40;12.40;;;;;;;0.82;75.33;99753.55;106289;1272;22544;-75
2022/04/23 04:33:54;;;;;;;25.80;12.50;;;;;;;0.88;75.44;99755.32;105857;1277;24483;-77
2022/04/23 04:36:29;;;;;;;28.50;13.60;;;;;;;0.92;75.61;99753.67;105981;1277;24013;-76
2022/04/23 04:39:13;;;;;;;31.00;14.70;;;;;;;0.94;75.72;99760.55;106041;1276;24811;-75
2022/04/23 04:41:47;;;;;;;30.30;15.90;;;;;;;0.99;75.74;99758.07;106131;1276;25371;-74
2022/04/23 04:44:28;;;;;;;30.60;14.80;;;;;;;1.05;76.35;99759.58;106093;1276;22585;-75
2022/04/23 04:47:02;;;;;;;30.30;15.50;;;;;;;1.13;76.42;99761.53;106039;1276;22542;-76
2022/04/23 04:49:34;;;;;;;35.00;17.30;;;;;;;1.19;76.59;99759.50;106061;1276;25358;-76
2022/04/23 04:52:06;;;;;;;33.90;16.90;;;;;;;1.25;76.54;99760.39;106069;1276;26347;-76
2022/04/23 04:54:41;;;;;;;33.30;17.90;;;;;;;1.30;76.62;99759.34;106089;1278;22951;-75
2022/04/23 04:57:15;;;;;;;37.20;16.70;;;;;;;1.34;76.92;99762.91;106359;1277;25204;-76
2022/04/23 04:59:49;;;;;;;41.30;19.60;;;;;;;1.41;76.75;99765.36;106093;1278;22550;-75
2022/04/23 05:02:20;;;;;;;45.90;20.60;;;;;;;1.49;76.80;99769.02;106080;1278;22679;-75
2022/04/23 05:04:52;;;;;;;49.30;24.10;;;;;;;1.58;76.86;99766.38;105999;1278;26735;-76
2022/04/23 05:07:24;;;;;;;45.90;22.50;;;;;;;1.68;76.99;99768.41;106071;1277;22571;-75
2022/04/23 05:09:56;;;;;;;52.80;22.30;;;;;;;1.79;76.90;99771.35;106082;1278;22579;-75
2022/04/23 05:12:28;;;;;;;54.20;25.10;;;;;;;1.90;77.12;99770.37;106363;1274;22548;-75
2022/04/23 05:15:00;;;;;;;41.30;21.00;;;;;;;2.01;77.47;99773.48;106239;1273;22484;-75
2022/04/23 05:17:39;;;;;;;50.90;21.10;;;;;;;2.13;77.96;99775.59;106291;1274;26545;-75
2022/04/23 05:20:13;;;;;;;41.00;20.30;;;;;;;2.24;78.37;99776.70;106300;1274;22570;-74
2022/04/23 05:22:45;;;;;;;43.50;22.60;;;;;;;2.36;78.73;99774.35;106381;1274;24640;-75
2022/04/23 05:25:16;;;;;;;42.60;21.60;;;;;;;2.47;78.72;99775.61;106306;1274;22610;-75
2022/04/23 05:27:49;;;;;;;40.30;19.80;;;;;;;2.58;78.94;99779.24;106321;1273;22561;-75
2022/04/23 05:30:21;;;;;;;37.30;19.20;;;;;;;2.70;79.01;99775.13;106311;1274;23579;-74
2022/04/23 05:32:52;;;;;;;40.70;19.00;;;;;;;2.81;79.35;99774.29;106365;1273;25039;-75
2022/04/23 05:35:25;;;;;;;38.70;20.00;;;;;;;2.90;79.62;99774.14;106224;1273;22584;-74
2022/04/23 05:37:59;;;;;;;43.10;21.00;;;;;;;3.01;79.77;99773.52;106297;1273;25253;-77
2022/04/23 05:40:30;;;;;;;41.80;20.80;;;;;;;3.11;79.97;99775.73;106276;1274;22538;-76
2022/04/23 05:43:02;;;;;;;42.70;20.60;;;;;;;3.23;80.17;99773.38;106326;1274;22547;-77
2022/04/23 05:45:33;;;;;;;40.20;21.70;;;;;;;3.40;80.68;99773.59;106346;1273;22731;-75
2022/04/23 05:48:12;;;;;;;45.70;23.30;;;;;;;3.59;80.69;99774.31;106327;1274;25369;-75
2022/04/23 05:50:44;;;;;;;50.90;25.40;;;;;;;3.74;80.48;99774.15;106433;1273;22541;-75
2022/04/23 05:53:16;;;;;;;48.20;26.10;;;;;;;3.86;80.25;99776.84;106441;1274;22721;-74
2022/04/23 05:55:47;;;;;;;51.80;26.40;;;;;;;3.98;80.34;99776.33;106291;1274;24270;-74
2022/04/23 05:58:21;;;;;;;53.80;27.60;;;;;;;4.10;80.06;99778.77;106582;1272;22716;-74
2022/04/23 06:00:53;;;;;;;53.90;27.70;;;;;;;4.20;80.00;99779.53;106548;1272;22534;-75
2022/04/23 06:03:24;;;;;;;50.10;26.80;;;;;;;4.32;80.13;99780.17;106458;1272;22482;-74
2022/04/23 06:05:55;;;;;;;51.70;26.20;;;;;;;4.42;79.87;99781.29;106556;1272;22559;-75
2022/04/23 06:08:26;;;;;;;47.20;25.20;;;;;;;4.51;79.72;99784.53;106669;1272;25563;-76
2022/04/23 06:10:59;;;;;;;47.50;26.20;;;;;;;4.61;79.53;99781.36;106591;1272;23963;-78
2022/04/23 06:13:31;;;;;;;53.10;28.40;;;;;;;4.71;79.59;99785.08;106749;1272;22677;-75
2022/04/23 06:16:03;;;;;;;55.00;29.20;;;;;;;4.83;80.05;99782.33;106633;1265;80691;-53
2022/04/23 06:18:35;;;;;;;46.30;24.50;;;;;;;4.99;79.91;99778.14;107147;1271;22550;-53
2022/04/23 06:21:07;;;;;;;50.60;26.20;;;;;;;5.13;79.34;99779.88;105592;1271;22670;-55
2022/04/23 06:23:39;;;;;;;47.50;24.90;;;;;;;5.23;79.25;99778.32;105814;1271;25350;-56
2022/04/23 06:26:11;;;;;;;48.40;24.90;;;;;;;5.34;79.30;99783.79;105769;1271;24124;-57
2022/04/23 06:28:43;;;;;;;48.10;26.10;;;;;;;5.46;79.20;99786.24;105869;1271;22529;-55
2022/04/23 06:31:14;;;;;;;49.50;27.00;;;;;;;5.55;78.91;99787.98;105881;1271;22524;-55
2022/04/23 06:33:46;;;;;;;49.60;26.00;;;;;;;5.61;78.88;99787.38;105882;1271;25600;-55
2022/04/23 06:36:17;;;;;;;43.70;24.50;;;;;;;5.69;78.84;99784.84;106216;1271;25432;-55
2022/04/23 06:38:49;;;;;;;49.30;25.50;;;;;;;5.76;78.68;99784.60;105767;1271;24267;-57
2022/04/23 06:41:20;;;;;;;53.10;25.40;;;;;;;5.84;78.74;99779.61;109673;1271;23574;-57
2022/04/23 06:43:52;;;;;;;43.70;24.40;;;;;;;5.91;78.58;99777.18;109210;1271;22548;-56
2022/04/23 06:46:25;;;;;;;40.60;21.90;;;;;;;6.02;78.35;99778.80;106015;1271;22538;-56
2022/04/23 06:49:00;;;;;;;45.90;23.80;;;;;;;6.10;78.42;99774.64;106024;1271;26019;-57
2022/04/23 06:51:31;;;;;;;36.20;19.40;;;;;;;6.21;78.17;99774.13;105908;1271;24150;-56
2022/04/23 06:54:02;;;;;;;38.50;20.30;;;;;;;6.29;77.86;99773.42;105753;1271;25364;-55
2022/04/23 06:56:34;;;;;;;40.10;23.60;;;;;;;6.39;77.74;99774.10;105695;1271;22553;-55
2022/04/23 06:59:05;;;;;;;36.50;19.00;;;;;;;6.49;77.77;99776.29;105685;1271;22533;-56
2022/04/23 07:01:37;;;;;;;40.30;20.00;;;;;;;6.62;77.80;99773.91;105625;1271;25377;-55
2022/04/23 07:04:09;;;;;;;34.50;19.00;;;;;;;6.73;77.70;99771.02;105662;1271;24268;-53
2022/04/23 07:06:41;;;;;;;34.80;18.10;;;;;;;6.82;77.39;99773.24;105707;1271;24383;-53
2022/04/23 07:09:12;;;;;;;37.30;17.60;;;;;;;6.92;77.43;99769.67;105900;1271;25671;-56
2022/04/23 07:11:44;;;;;;;29.70;14.70;;;;;;;7.05;76.95;99773.48;105895;1271;22535;-57
2022/04/23 07:14:18;;;;;;;28.90;14.50;;;;;;;7.17;76.79;99770.77;106052;1271;22595;-55
2022/04/23 07:16:49;;;;;;;23.30;11.10;;;;;;;7.30;76.45;99776.45;105998;1271;25253;-58
2022/04/23 07:19:21;;;;;;;28.90;11.80;;;;;;;7.46;75.73;99778.30;106028;1271;25238;-56
2022/04/23 07:21:53;;;;;;;20.20;9.20;;;;;;;7.57;75.34;99779.56;105835;1271;25613;-57
2022/04/23 07:24:24;;;;;;;22.50;8.90;;;;;;;7.67;75.10;99783.53;105908;1271;22538;-57
2022/04/23 07:26:59;;;;;;;20.70;8.60;;;;;;;7.77;75.14;99780.90;106196;1271;22737;-57
2022/04/23 07:29:30;;;;;;;20.00;8.60;;;;;;;7.89;74.79;99775.48;105955;1271;25410;-56
2022/04/23 07:32:02;;;;;;;12.00;4.40;;;;;;;7.97;73.90;99774.35;105932;1271;22569;-56
2022/04/23 07:37:29;;;;;;;19.60;8.10;;;;;;;8.28;73.09;99762.64;105939;1271;22545;-57
2022/04/23 07:40:05;;;;;;;18.40;7.60;;;;;;;8.40;72.90;99762.43;105991;1272;25671;-55
2022/04/23 07:42:37;;;;;;;14.10;5.60;;;;;;;8.47;72.93;99762.68;106374;1271;24696;-56
2022/04/23 07:45:10;;;;;;;16.60;6.60;;;;;;;8.58;72.29;99765.07;106154;1271;25819;-55
2022/04/23 07:47:41;;;;;;;19.00;7.00;;;;;;;8.67;72.40;99760.44;106145;1271;26516;-56
2022/04/23 07:50:13;;;;;;;17.40;7.20;;;;;;;8.74;72.28;99757.03;106127;1271;22525;-55
2022/04/23 07:52:45;;;;;;;18.90;6.90;;;;;;;8.80;72.07;99755.93;107188;1271;23809;-56
2022/04/23 07:55:17;;;;;;;13.70;5.40;;;;;;;8.85;70.76;99755.61;106741;1271;22668;-56
2022/04/23 07:57:50;;;;;;;17.20;5.70;;;;;;;8.95;70.83;99751.54;106089;1271;25577;-57
2022/04/23 08:00:22;;;;;;;17.90;7.50;;;;;;;9.06;71.32;99749.20;106575;1271;24220;-56
2022/04/23 08:02:53;;;;;;;16.50;6.50;;;;;;;9.19;70.29;99743.79;106448;1271;22595;-55
2022/04/23 08:05:25;;;;;;;13.40;6.00;;;;;;;9.32;70.44;99743.23;106198;1271;22606;-55
2022/04/23 08:07:57;;;;;;;17.40;6.50;;;;;;;9.43;70.00;99740.58;106225;1271;22769;-56
2022/04/23 08:10:28;;;;;;;16.10;5.90;;;;;;;9.52;69.64;99735.02;106237;1271;24239;-57
2022/04/23 08:13:02;;;;;;;18.00;7.50;;;;;;;9.58;69.56;99737.71;106203;1271;25251;-54
2022/04/23 08:15:34;;;;;;;17.00;7.10;;;;;;;9.62;69.04;99738.03;106097;1271;24211;-54
2022/04/23 08:18:06;;;;;;;14.60;6.20;;;;;;;9.70;69.39;99739.96;106235;1271;25317;-58
2022/04/23 08:20:38;;;;;;;15.20;6.80;;;;;;;9.77;69.34;99739.16;106091;1271;22567;-57
2022/04/23 08:23:10;;;;;;;17.00;7.10;;;;;;;9.90;69.27;99739.99;106256;1271;22612;-56
2022/04/23 08:25:41;;;;;;;19.10;7.00;;;;;;;10.04;69.02;99735.77;106181;1271;22592;-55
2022/04/23 08:31:02;;;;;;;23.30;7.60;;;;;;;10.25;67.75;99731.35;106107;1271;23330;-56
2022/04/23 08:36:19;;;;;;;12.60;5.70;;;;;;;10.32;66.77;99717.44;106066;1271;22624;-57
2022/04/23 08:38:51;;;;;;;12.10;4.30;;;;;;;10.39;66.64;99719.23;106096;1272;24381;-56
2022/04/23 08:41:25;;;;;;;14.20;5.10;;;;;;;10.45;65.77;99719.60;106016;1271;22645;-57
2022/04/23 08:44:05;;;;;;;12.70;5.00;;;;;;;10.49;66.22;99716.52;106066;1272;22546;-57
2022/04/23 08:46:38;;;;;;;14.80;5.50;;;;;;;10.54;65.85;99711.33;106080;1271;25242;-55
2022/04/23 08:49:16;;;;;;;14.50;6.30;;;;;;;10.64;66.49;99713.27;106038;1271;25637;-56
2022/04/23 08:51:52;;;;;;;13.20;5.20;;;;;;;10.73;66.22;99710.55;106156;1272;22518;-56
2022/04/23 08:54:26;;;;;;;13.50;5.40;;;;;;;10.87;65.23;99707.45;106235;1271;25374;-53
2022/04/23 08:56:57;;;;;;;15.80;6.20;;;;;;;10.96;64.69;99708.13;106145;1271;24522;-55
2022/04/23 08:59:29;;;;;;;18.30;8.10;;;;;;;10.97;64.89;99706.02;106137;1272;24302;-56
2022/04/23 09:02:01;;;;;;;15.30;6.40;;;;;;;10.98;64.90;99706.83;107882;1271;25407;-53
2022/04/23 09:04:33;;;;;;;13.60;5.60;;;;;;;11.06;64.42;99700.16;106199;1271;22685;-57
2022/04/23 09:07:04;;;;;;;13.70;6.10;;;;;;;11.17;64.24;99703.29;106147;1271;22528;-56
2022/04/23 09:09:47;;;;;;;14.10;6.20;;;;;;;11.24;63.74;99701.25;106261;1271;22540;-55
2022/04/23 09:12:20;;;;;;;13.80;6.20;;;;;;;11.30;63.91;99704.77;106318;1271;25380;-56
2022/04/23 09:14:52;;;;;;;13.40;5.80;;;;;;;11.32;63.73;99706.39;106336;1271;24046;-54
2022/04/23 09:26:17;;;;;;;16.40;7.00;;;;;;;11.62;62.17;99695.36;106007;1273;22528;-55
2022/04/23 09:28:51;;;;;;;13.40;6.20;;;;;;;11.66;62.64;99696.42;106024;1272;25349;-56
2022/04/23 09:31:25;;;;;;;16.10;7.30;;;;;;;11.79;62.37;99693.96;106181;1271;22532;-56
2022/04/23 09:33:56;;;;;;;13.40;6.50;;;;;;;11.91;62.39;99697.03;105739;1271;22534;-57
2022/04/23 09:36:55;;;;;;;16.60;7.30;;;;;;;12.02;61.47;99697.34;105879;1271;23090;-57
2022/04/23 09:39:34;;;;;;;15.40;6.80;;;;;;;12.02;61.63;99688.59;105741;1272;24897;-57
2022/04/23 09:42:17;;;;;;;14.40;6.40;;;;;;;12.12;61.84;99686.48;106105;1271;22680;-57
2022/04/23 09:44:50;;;;;;;14.10;6.40;;;;;;;12.15;61.51;99685.55;105909;1272;22523;-58
2022/04/23 09:47:34;;;;;;;11.80;4.60;;;;;;;12.11;61.06;99692.69;105998;1272;24609;-55
2022/04/23 09:50:15;;;;;;;12.30;4.90;;;;;;;12.14;60.28;99690.31;106043;1272;24271;-57
2022/04/23 09:52:51;;;;;;;11.00;5.00;;;;;;;12.18;60.19;99682.50;106024;1271;22548;-56
2022/04/23 09:55:25;;;;;;;10.50;4.10;;;;;;;12.22;60.21;99684.80;106414;1272;25202;-57
2022/04/23 09:57:57;;;;;;;12.30;4.20;;;;;;;12.28;59.58;99684.61;106073;1271;24717;-57
2022/04/23 10:00:29;;;;;;;17.50;7.00;;;;;;;12.37;59.80;99682.45;105840;1271;25326;-58
2022/04/23 10:03:06;;;;;;;13.60;5.30;;;;;;;12.50;59.39;99681.16;105888;1271;25357;-58
2022/04/23 10:05:41;;;;;;;13.70;5.30;;;;;;;12.63;59.02;99680.63;105617;1271;25204;-56
2022/04/23 10:08:15;;;;;;;11.30;5.50;;;;;;;12.78;58.90;99683.65;106087;1271;22534;-55
2022/04/23 10:10:52;;;;;;;14.70;5.30;;;;;;;12.91;58.75;99681.38;106332;1271;22676;-56
2022/04/23 10:13:27;;;;;;;11.50;4.60;;;;;;;13.03;58.67;99684.29;106219;1271;25325;-55
2022/04/23 10:16:03;;;;;;;12.20;4.60;;;;;;;13.12;58.14;99689.87;106055;1271;22619;-55
2022/04/23 10:18:38;;;;;;;11.50;5.00;;;;;;;13.17;57.45;99687.63;105990;1271;23933;-57
2022/04/23 10:21:14;;;;;;;13.30;6.00;;;;;;;13.16;57.54;99686.23;106033;1271;24310;-57
2022/04/23 10:24:03;;;;;;;9.80;3.70;;;;;;;13.19;56.81;99683.70;105968;1272;26525;-55
2022/04/23 10:26:42;;;;;;;12.80;5.50;;;;;;;13.25;56.99;99683.99;105878;1271;25408;-58
2022/04/23 10:29:15;;;;;;;12.30;5.30;;;;;;;13.27;56.84;99688.23;106322;1271;22683;-57
2022/04/23 10:32:07;;;;;;;10.30;4.20;;;;;;;13.28;56.69;99689.55;106211;1271;25556;-57
2022/04/23 10:34:39;;;;;;;12.20;4.40;;;;;;;13.30;56.93;99688.02;106011;1272;22567;-56
2022/04/23 10:37:21;;;;;;;12.30;4.70;;;;;;;13.36;56.57;99683.89;106124;1271;24206;-58
2022/04/23 10:40:16;;;;;;;10.90;4.10;;;;;;;13.40;56.82;99685.46;106095;1271;25977;-58
2022/04/23 10:43:12;;;;;;;10.90;4.40;;;;;;;13.46;56.03;99679.43;105787;1278;22604;-58
2022/04/23 10:45:43;;;;;;;9.70;3.90;;;;;;;13.50;55.90;99672.15;101754;1277;5505092;-57
2022/04/23 10:48:34;;;;;;;12.50;5.70;;;;;;;13.55;55.91;99671.56;105699;1277;22531;-56
2022/04/23 10:51:20;;;;;;;16.40;6.80;;;;;;;13.65;55.71;99667.16;105590;1278;22742;-56
2022/04/23 10:53:56;;;;;;;14.40;5.00;;;;;;;13.74;55.66;99668.61;105695;1278;22546;-57
2022/04/23 10:56:35;;;;;;;9.10;3.70;;;;;;;13.83;54.87;99666.70;105689;1276;25276;-58
2022/04/23 10:59:26;;;;;;;11.30;3.80;;;;;;;13.87;54.14;99663.98;106071;1278;23401;-55
2022/04/23 11:02:06;;;;;;;9.80;3.70;;;;;;;13.90;54.30;99665.81;105703;1278;22556;-57
2022/04/23 11:13:28;;;;;;;11.00;4.40;;;;;;;14.00;53.43;99660.88;105549;1276;25484;-57
2022/04/23 11:16:17;;;;;;;10.20;4.10;;;;;;;14.01;53.80;99660.83;105810;1278;22712;-58
2022/04/23 11:18:52;;;;;;;13.50;4.60;;;;;;;14.00;53.66;99657.66;105809;1278;22550;-54
2022/04/23 11:21:26;;;;;;;12.60;5.60;;;;;;;14.02;53.02;99657.49;105959;1271;22560;-54
2022/04/23 11:24:00;;;;;;;11.20;4.60;;;;;;;14.01;51.94;99657.86;106306;1271;22550;-57
2022/04/23 11:26:44;;;;;;;10.30;3.90;;;;;;;14.02;52.16;99652.39;106001;1271;22567;-55
2022/04/23 11:29:17;;;;;;;9.90;4.00;;;;;;;14.05;51.96;99646.35;106221;1273;22583;-56
2022/04/23 11:31:55;;;;;;;10.10;3.80;;;;;;;14.09;52.17;99643.23;106308;1271;22645;-56
2022/04/23 11:34:28;;;;;;;10.10;4.30;;;;;;;14.18;51.73;99642.62;106933;1271;25390;-57
2022/04/23 11:37:00;;;;;;;10.10;3.60;;;;;;;14.25;51.71;99637.42;106142;1272;22534;-58
2022/04/23 11:39:32;;;;;;;13.70;5.80;;;;;;;14.31;51.74;99633.95;106151;1273;22551;-56
2022/04/23 11:42:03;;;;;;;12.00;4.80;;;;;;;14.41;52.01;99630.27;106199;1271;25469;-58
2022/04/23 11:44:47;;;;;;;14.50;5.10;;;;;;;14.49;52.08;99631.64;109730;1271;22522;-58
2022/04/23 11:47:30;;;;;;;14.10;5.20;;;;;;;14.56;52.10;99630.58;109722;1271;22426;-58
2022/04/23 11:50:13;;;;;;;12.60;5.00;;;;;;;14.59;51.34;99630.09;109720;1271;22527;-58
2022/04/23 11:52:57;;;;;;;9.90;4.60;;;;;;;14.54;51.75;99626.40;109632;1272;22432;-58
2022/04/23 11:55:30;;;;;;;13.40;5.30;;;;;;;14.53;51.92;99625.32;108516;1271;25296;-57
2022/04/23 11:58:08;;;;;;;11.00;4.40;;;;;;;14.53;51.51;99623.45;106086;1271;22543;-55
2022/04/23 12:00:40;;;;;;;10.50;3.30;;;;;;;14.53;51.16;99617.92;106253;1271;25915;-55
2022/04/23 12:03:11;;;;;;;12.10;4.80;;;;;;;14.57;50.38;99618.30;106080;1272;22639;-54
2022/04/23 12:05:43;;;;;;;12.20;4.50;;;;;;;14.59;49.89;99618.60;106140;1272;24206;-57
2022/04/23 12:08:24;;;;;;;11.70;4.60;;;;;;;14.62;50.07;99613.27;106255;1272;22578;-56
2022/04/23 12:10:58;;;;;;;13.70;4.20;;;;;;;14.67;50.27;99610.77;106186;1272;25324;-58
2022/04/23 12:13:29;;;;;;;10.30;3.40;;;;;;;14.69;50.19;99602.91;106210;1272;22670;-57
2022/04/23 12:16:01;;;;;;;11.70;4.70;;;;;;;14.72;49.36;99602.52;106150;1272;22563;-56
2022/04/23 12:18:33;;;;;;;10.90;3.80;;;;;;;14.72;48.99;99596.79;106306;1271;22537;-55